createdAt,value
2023-03-04T00:06:37.868Z,98787.78
2023-03-04T00:17:03.852Z,98777.39
2023-03-04T00:27:28.668Z,98762.41
2023-03-04T00:37:53.506Z,98749.92
2023-03-04T00:48:18.298Z,98737.94
2023-03-04T00:58:43.011Z,98727.45
2023-03-04T01:09:07.959Z,98708.42
2023-03-04T01:19:32.948Z,98690.64
2023-03-04T01:29:58.106Z,98673.33
2023-03-04T01:40:24.081Z,98646.42
2023-03-04T01:50:48.682Z,98643.98
2023-03-04T02:01:13.976Z,98634.65
2023-03-04T02:11:39.666Z,98610.69
2023-03-04T02:22:04.342Z,98603.16
2023-03-04T02:32:28.777Z,98587.92
2023-03-04T02:42:53.215Z,98579.83
2023-03-04T02:53:17.565Z,98569.10
2023-03-04T03:03:41.770Z,98555.42
2023-03-04T03:14:06.591Z,98534.42
2023-03-04T03:24:30.786Z,98532.33
2023-03-04T03:34:55.039Z,98527.06
2023-03-04T03:45:20.027Z,98530.67
2023-03-04T03:55:44.959Z,98528.55
2023-03-04T04:06:09.937Z,98524.69
2023-03-04T04:16:36.043Z,98521.55
2023-03-04T04:27:00.862Z,98520.25
2023-03-04T04:37:25.248Z,98525.34
2023-03-04T04:47:49.399Z,98525.70
2023-03-04T04:58:13.641Z,98518.79
2023-03-04T05:08:38.306Z,98519.21
2023-03-04T05:19:02.505Z,98515.27
2023-03-04T05:29:26.781Z,98517.67
2023-03-04T05:39:50.981Z,98524.54
2023-03-04T05:50:15.514Z,98525.16
2023-03-04T06:00:39.729Z,98512.70
2023-03-04T06:11:04.944Z,98515.91
2023-03-04T06:21:29.230Z,98521.39
2023-03-04T06:31:53.607Z,98518.87
2023-03-04T06:42:17.982Z,98520.94
2023-03-04T06:52:42.438Z,98524.09
2023-03-04T07:03:06.673Z,98530.33
2023-03-04T07:13:30.990Z,98530.88
2023-03-04T07:23:56.703Z,98547.34
2023-03-04T07:34:21.212Z,98553.13
2023-03-04T07:44:45.387Z,98555.95
2023-03-04T07:55:12.445Z,98550.02
2023-03-04T08:05:39.872Z,98552.30
2023-03-04T08:16:06.454Z,98559.98
2023-03-04T08:26:34.077Z,98572.14
2023-03-04T08:36:58.901Z,98577.95
2023-03-04T08:47:23.751Z,98579.42
2023-03-04T08:57:48.142Z,98574.38
2023-03-04T09:08:12.947Z,98570.44
2023-03-04T09:18:37.312Z,98564.06
2023-03-04T09:29:02.648Z,98561.68
2023-03-04T09:39:27.385Z,98560.27
2023-03-04T09:49:57.302Z,98556.25
2023-03-04T10:00:24.531Z,98546.82
2023-03-04T10:10:51.380Z,98547.05
2023-03-04T10:21:23.036Z,98531.64
2023-03-04T10:31:48.821Z,98528.83
2023-03-04T10:42:30.081Z,98520.25
2023-03-04T10:52:55.706Z,98503.60
2023-03-04T11:03:30.009Z,98492.68
2023-03-04T11:13:59.245Z,98480.97
2023-03-04T11:24:30.211Z,98465.55
2023-03-04T11:35:01.175Z,98465.81
2023-03-04T11:45:36.851Z,98450.59
2023-03-04T11:56:10.815Z,98437.31
2023-03-04T12:06:47.953Z,98426.27
2023-03-04T12:17:40.172Z,98420.30
2023-03-04T12:28:21.227Z,98414.42
2023-03-04T12:39:05.789Z,98409.35
2023-03-04T12:49:54.655Z,98399.86
2023-03-04T13:00:31.235Z,98388.67
2023-03-04T13:11:02.351Z,98377.77
2023-03-04T13:21:28.474Z,98360.81
2023-03-04T13:32:01.439Z,98360.64
2023-03-04T13:42:43.347Z,98360.29
2023-03-04T13:53:31.398Z,98351.56
2023-03-04T14:03:56.301Z,98346.36
2023-03-04T14:14:24.250Z,98343.32
2023-03-04T14:25:01.914Z,98341.30
2023-03-04T14:35:28.314Z,98334.90
2023-03-04T14:45:55.929Z,98336.29
2023-03-04T14:56:28.839Z,98342.33
2023-03-04T15:06:54.342Z,98339.73
2023-03-04T15:17:36.959Z,98335.00
2023-03-04T15:28:02.987Z,98321.94
2023-03-04T15:38:29.207Z,98317.29
2023-03-04T15:48:54.523Z,98317.41
2023-03-04T15:59:19.930Z,98305.30
2023-03-04T16:09:44.425Z,98304.88
2023-03-04T16:20:11.883Z,98301.04
2023-03-04T16:30:36.213Z,98304.52
2023-03-04T16:41:01.843Z,98303.43
2023-03-04T16:51:26.147Z,98312.83
2023-03-04T17:01:54.037Z,98319.77
2023-03-04T17:12:18.459Z,98324.59
2023-03-04T17:22:43.276Z,98321.96
2023-03-04T17:33:08.233Z,98317.05
2023-03-04T17:43:33.243Z,98316.55
2023-03-04T17:53:58.799Z,98324.63
2023-03-04T18:04:24.501Z,98331.99
2023-03-04T18:14:48.853Z,98331.20
2023-03-04T18:25:13.887Z,98329.81
2023-03-04T18:35:38.256Z,98324.86
2023-03-04T18:46:05.753Z,98330.67
2023-03-04T18:56:37.674Z,98324.85
2023-03-04T19:07:02.133Z,98325.47
2023-03-04T19:17:31.527Z,98329.73
2023-03-04T19:27:56.496Z,98331.67
2023-03-04T19:38:21.796Z,98328.45
2023-03-04T19:48:49.512Z,98332.23
2023-03-04T19:59:13.870Z,98334.55
2023-03-04T20:09:38.128Z,98338.76
2023-03-04T20:20:03.420Z,98339.79
2023-03-04T20:30:27.689Z,98339.23
2023-03-04T20:40:51.924Z,98339.58
2023-03-04T20:51:16.768Z,98327.49
2023-03-04T21:01:44.066Z,98319.55
2023-03-04T21:12:09.660Z,98319.00
2023-03-04T21:22:33.990Z,98316.04
2023-03-04T21:32:59.958Z,98308.09
2023-03-04T21:43:24.783Z,98304.49
2023-03-04T21:53:49.652Z,98298.81
2023-03-04T22:04:14.616Z,98295.95
2023-03-04T22:14:39.685Z,98288.84
2023-03-04T22:25:04.916Z,98306.06
2023-03-04T22:35:29.200Z,98307.35
2023-03-04T22:45:54.172Z,98314.38
2023-03-04T22:56:20.216Z,98316.64
2023-03-04T23:06:44.585Z,98320.30
2023-03-04T23:17:10.053Z,98324.83
2023-03-04T23:27:34.864Z,98330.06
2023-03-04T23:37:59.745Z,98332.06
2023-03-04T23:48:24.559Z,98337.86
2023-03-04T23:58:50.190Z,98342.52
